createdAt,value
2023-02-15T00:00:42.461Z,37.72
2023-02-15T00:03:10.489Z,37.13
2023-02-15T00:05:38.554Z,36.90
2023-02-15T00:08:06.566Z,36.25
2023-02-15T00:10:34.499Z,36.58
2023-02-15T00:13:02.679Z,39.88
2023-02-15T00:15:30.616Z,34.08
2023-02-15T00:17:59.349Z,37.65
2023-02-15T00:20:27.296Z,33.75
2023-02-15T00:22:56.004Z,30.98
2023-02-15T00:25:23.904Z,32.85
2023-02-15T00:27:51.891Z,34.15
2023-02-15T00:30:19.942Z,39.08
2023-02-15T00:32:50.124Z,30.17
2023-02-15T00:35:18.206Z,37.00
2023-02-15T00:37:46.188Z,36.15
2023-02-15T00:40:14.364Z,34.35
2023-02-15T00:42:42.295Z,30.88
2023-02-15T00:45:11.009Z,29.27
2023-02-15T00:47:39.009Z,30.15
2023-02-15T00:50:10.486Z,32.00
2023-02-15T00:52:39.468Z,29.65
2023-02-15T00:55:10.442Z,30.83
2023-02-15T00:57:41.588Z,30.88
2023-02-15T01:00:10.107Z,30.20
2023-02-15T01:02:37.997Z,33.50
2023-02-15T01:05:07.979Z,28.92
2023-02-15T01:07:35.909Z,29.50
2023-02-15T01:10:03.936Z,26.40
2023-02-15T01:12:34.513Z,31.43
2023-02-15T01:15:02.479Z,27.85
2023-02-15T01:17:30.812Z,27.52
2023-02-15T01:19:58.757Z,27.67
2023-02-15T01:22:27.078Z,29.13
2023-02-15T01:24:56.279Z,27.77
2023-02-15T01:27:24.204Z,29.15
2023-02-15T01:29:52.164Z,29.20
2023-02-15T01:32:20.095Z,28.52
2023-02-15T01:34:48.685Z,29.55
2023-02-15T01:37:16.585Z,30.00
2023-02-15T01:39:44.519Z,33.30
2023-02-15T01:42:13.507Z,28.92
2023-02-15T01:45:01.812Z,30.45
2023-02-15T01:47:45.697Z,25.95
2023-02-15T01:50:35.187Z,26.20
2023-02-15T01:53:15.058Z,28.70
2023-02-15T01:55:49.336Z,29.73
2023-02-15T01:58:17.804Z,28.75
2023-02-15T02:00:47.390Z,26.80
2023-02-15T02:03:16.367Z,25.80
2023-02-15T02:05:44.797Z,27.65
2023-02-15T02:08:14.244Z,27.67
2023-02-15T02:10:42.228Z,25.75
2023-02-15T02:13:10.258Z,26.75
2023-02-15T02:15:54.464Z,26.98
2023-02-15T02:18:34.572Z,26.88
2023-02-15T02:21:28.363Z,28.90
2023-02-15T02:24:20.051Z,24.15
2023-02-15T02:27:07.536Z,25.33
2023-02-15T02:29:58.888Z,27.63
2023-02-15T02:33:04.625Z,28.42
2023-02-15T02:36:11.444Z,29.15
2023-02-15T02:38:47.725Z,27.88
2023-02-15T02:41:26.536Z,29.65
2023-02-15T02:43:58.958Z,28.23
2023-02-15T02:46:43.369Z,29.67
2023-02-15T02:49:11.419Z,28.23
2023-02-15T02:51:39.333Z,28.55
2023-02-15T02:54:09.313Z,26.08
2023-02-15T02:56:46.867Z,29.05
2023-02-15T02:59:35.575Z,30.55
2023-02-15T03:02:15.005Z,29.52
2023-02-15T03:04:47.983Z,27.85
2023-02-15T03:07:24.028Z,29.02
2023-02-15T03:09:59.075Z,28.67
2023-02-15T03:12:34.140Z,28.80
2023-02-15T03:15:08.607Z,27.05
2023-02-15T03:17:42.840Z,29.77
2023-02-15T03:20:27.855Z,29.92
2023-02-15T03:23:00.268Z,29.50
2023-02-15T03:25:37.311Z,30.15
2023-02-15T03:28:09.901Z,30.45
2023-02-15T03:30:40.124Z,27.73
2023-02-15T03:33:10.912Z,25.63
2023-02-15T03:35:59.080Z,30.40
2023-02-15T03:38:53.774Z,29.77
2023-02-15T03:41:27.013Z,31.92
2023-02-15T03:43:57.141Z,28.90
2023-02-15T03:46:46.154Z,31.17
2023-02-15T03:49:26.239Z,27.92
2023-02-15T03:51:57.440Z,30.48
2023-02-15T03:57:43.872Z,29.77
2023-02-15T04:00:42.982Z,30.60
2023-02-15T04:03:24.598Z,27.50
2023-02-15T04:05:52.814Z,27.67
2023-02-15T04:08:20.953Z,26.00
2023-02-15T04:10:54.793Z,31.27
2023-02-15T04:13:24.889Z,26.23
2023-02-15T04:16:08.512Z,25.90
2023-02-15T04:19:01.568Z,23.70
2023-02-15T04:21:50.774Z,27.17
2023-02-15T04:24:37.567Z,27.27
2023-02-15T04:27:10.150Z,22.95
2023-02-15T04:29:38.121Z,23.45
2023-02-15T04:32:06.205Z,25.00
2023-02-15T04:34:34.196Z,26.73
2023-02-15T04:37:02.080Z,26.45
2023-02-15T04:39:30.059Z,26.58
2023-02-15T04:41:57.948Z,25.23
2023-02-15T04:44:25.925Z,30.55
2023-02-15T04:46:53.865Z,27.55
2023-02-15T04:49:21.773Z,25.08
2023-02-15T04:51:49.666Z,21.80
2023-02-15T04:54:17.606Z,22.73
2023-02-15T04:56:45.730Z,21.52
2023-02-15T04:59:14.235Z,20.13
2023-02-15T05:01:42.204Z,20.15
2023-02-15T05:04:10.209Z,20.50
2023-02-15T05:06:38.352Z,23.80
2023-02-15T05:09:06.310Z,21.17
2023-02-15T05:11:34.332Z,22.77
2023-02-15T05:14:02.219Z,25.10
2023-02-15T05:16:30.156Z,25.10
2023-02-15T05:18:58.117Z,22.60
2023-02-15T05:21:26.194Z,25.08
2023-02-15T05:23:54.235Z,23.13
2023-02-15T05:26:43.647Z,21.70
2023-02-15T05:29:12.564Z,18.30
2023-02-15T05:31:40.760Z,21.25
2023-02-15T05:34:08.727Z,20.33
2023-02-15T05:36:36.616Z,21.17
2023-02-15T05:39:06.140Z,23.08
2023-02-15T05:41:34.022Z,24.17
2023-02-15T05:44:01.904Z,23.58
2023-02-15T05:46:29.882Z,24.90
2023-02-15T05:48:57.838Z,23.67
2023-02-15T05:51:25.748Z,23.25
2023-02-15T05:53:53.640Z,22.40
2023-02-15T05:56:21.653Z,24.80
2023-02-15T05:58:49.970Z,21.75
2023-02-15T06:01:20.264Z,22.85
2023-02-15T06:03:51.348Z,25.60
2023-02-15T06:06:21.942Z,26.08
2023-02-15T06:08:50.004Z,30.05
2023-02-15T06:11:18.750Z,26.52
2023-02-15T06:13:46.696Z,25.88
2023-02-15T06:16:14.645Z,28.15
2023-02-15T06:18:42.603Z,32.05
2023-02-15T06:21:10.522Z,26.90
2023-02-15T06:23:38.453Z,25.95
2023-02-15T06:26:06.400Z,27.40
2023-02-15T06:28:34.321Z,25.30
2023-02-15T06:31:02.326Z,28.42
2023-02-15T06:33:32.450Z,27.83
2023-02-15T06:36:00.635Z,27.17
2023-02-15T06:38:28.966Z,25.90
2023-02-15T06:40:56.926Z,28.15
2023-02-15T06:43:24.840Z,27.77
2023-02-15T06:45:52.785Z,26.42
2023-02-15T06:48:20.680Z,30.83
2023-02-15T06:50:48.569Z,27.10
2023-02-15T06:53:16.467Z,25.05
2023-02-15T06:55:44.430Z,29.30
2023-02-15T06:58:12.311Z,26.55
2023-02-15T07:00:40.225Z,27.08
2023-02-15T07:03:08.133Z,28.17
2023-02-15T07:05:36.783Z,28.00
2023-02-15T07:08:04.997Z,31.83
2023-02-15T07:10:32.952Z,30.83
2023-02-15T07:13:00.862Z,36.50
2023-02-15T07:15:28.855Z,28.63
2023-02-15T07:17:56.777Z,30.50
2023-02-15T07:20:25.782Z,28.25
2023-02-15T07:22:53.891Z,31.88
2023-02-15T07:25:22.206Z,30.40
2023-02-15T07:27:50.310Z,31.27
2023-02-15T07:30:19.351Z,29.20
2023-02-15T07:33:06.341Z,32.55
2023-02-15T07:35:35.348Z,27.52
2023-02-15T07:38:03.328Z,31.05
2023-02-15T07:40:31.392Z,26.38
2023-02-15T07:43:05.217Z,29.17
2023-02-15T07:45:35.997Z,27.73
2023-02-15T07:48:04.633Z,29.50
2023-02-15T07:50:33.588Z,31.27
2023-02-15T07:53:04.244Z,31.80
2023-02-15T07:55:32.712Z,26.45
2023-02-15T07:58:00.595Z,27.88
2023-02-15T08:00:29.154Z,30.40
2023-02-15T08:03:16.798Z,28.40
2023-02-15T08:05:47.051Z,27.80
2023-02-15T08:08:31.714Z,28.25
2023-02-15T08:11:20.259Z,28.45
2023-02-15T08:14:01.016Z,32.28
2023-02-15T08:16:45.623Z,26.55
2023-02-15T08:19:28.784Z,26.23
2023-02-15T08:21:59.566Z,27.60
2023-02-15T08:24:30.387Z,27.13
2023-02-15T08:26:59.706Z,25.35
2023-02-15T08:29:30.320Z,26.33
2023-02-15T08:32:06.392Z,23.70
2023-02-15T08:34:40.483Z,28.83
2023-02-15T08:37:08.793Z,29.30
2023-02-15T08:39:37.092Z,31.88
2023-02-15T08:42:05.340Z,26.70
2023-02-15T08:44:33.356Z,28.27
2023-02-15T08:47:06.965Z,26.35
2023-02-15T08:49:34.932Z,26.20
2023-02-15T08:52:02.920Z,25.67
2023-02-15T08:54:31.679Z,25.65
2023-02-15T08:56:59.689Z,26.48
2023-02-15T08:59:29.010Z,27.58
2023-02-15T09:01:57.466Z,30.65
2023-02-15T09:04:25.468Z,22.55
2023-02-15T09:06:54.784Z,23.83
2023-02-15T09:09:23.833Z,27.05
2023-02-15T09:11:58.859Z,25.50
2023-02-15T09:14:28.625Z,26.60
2023-02-15T09:16:56.729Z,25.42
2023-02-15T09:19:25.697Z,26.65
2023-02-15T09:21:53.713Z,27.73
2023-02-15T09:24:21.796Z,23.02
2023-02-15T09:26:50.703Z,25.20
2023-02-15T09:29:20.026Z,25.25
2023-02-15T09:31:51.324Z,26.00
2023-02-15T09:36:49.939Z,24.13
2023-02-15T09:39:19.215Z,26.58
2023-02-15T09:42:15.076Z,28.08
2023-02-15T09:45:11.201Z,28.33
2023-02-15T09:48:07.716Z,30.85
2023-02-15T09:50:57.565Z,26.50
2023-02-15T09:54:10.784Z,30.10
2023-02-15T09:56:53.419Z,28.17
2023-02-15T09:59:36.414Z,28.45
2023-02-15T10:02:24.565Z,25.88
2023-02-15T10:05:12.876Z,26.27
2023-02-15T10:08:17.760Z,24.40
2023-02-15T10:11:27.405Z,28.00
2023-02-15T10:14:16.709Z,27.95
2023-02-15T10:17:28.688Z,27.90
2023-02-15T10:20:06.985Z,28.55
2023-02-15T10:23:06.939Z,27.88
2023-02-15T10:26:03.467Z,25.15
2023-02-15T10:28:54.195Z,25.27
2023-02-15T10:32:00.490Z,25.83
2023-02-15T10:35:07.285Z,24.90
2023-02-15T10:38:01.480Z,26.42
2023-02-15T10:40:38.236Z,25.05
2023-02-15T10:43:20.253Z,25.63
2023-02-15T10:46:12.737Z,29.20
2023-02-15T10:49:05.127Z,22.00
2023-02-15T10:52:16.651Z,23.88
2023-02-15T10:55:00.324Z,28.05
2023-02-15T10:57:43.517Z,27.70
2023-02-15T11:00:52.195Z,26.40
2023-02-15T11:03:25.957Z,24.92
2023-02-15T11:06:06.799Z,20.83
2023-02-15T11:08:42.299Z,21.17
2023-02-15T11:11:14.662Z,21.45
2023-02-15T11:13:50.020Z,23.73
2023-02-15T11:16:55.067Z,21.60
2023-02-15T11:19:34.222Z,24.73
2023-02-15T11:22:05.912Z,30.23
2023-02-15T11:24:41.068Z,24.02
2023-02-15T11:27:17.624Z,25.67
2023-02-15T11:29:54.373Z,24.90
2023-02-15T11:32:25.089Z,24.85
2023-02-15T11:35:05.078Z,23.33
2023-02-15T11:37:57.401Z,20.77
2023-02-15T11:40:43.623Z,22.88
2023-02-15T11:43:38.160Z,23.80
2023-02-15T11:46:06.954Z,27.48
2023-02-15T11:48:35.398Z,22.58
2023-02-15T11:51:05.444Z,25.63
2023-02-15T11:53:40.138Z,22.40
2023-02-15T11:56:16.463Z,22.92
2023-02-15T11:58:59.200Z,20.90
2023-02-15T12:01:38.852Z,26.10
2023-02-15T12:04:26.278Z,20.13
2023-02-15T12:07:03.158Z,23.33
2023-02-15T12:09:36.465Z,17.67
2023-02-15T12:12:34.876Z,26.15
2023-02-15T12:15:10.815Z,20.40
2023-02-15T12:17:42.979Z,19.02
2023-02-15T12:20:16.812Z,17.08
2023-02-15T12:23:16.925Z,21.30
2023-02-15T12:25:56.625Z,20.70
2023-02-15T12:28:27.070Z,19.38
2023-02-15T12:30:59.586Z,22.07
2023-02-15T12:33:36.998Z,20.35
2023-02-15T12:36:21.076Z,19.13
2023-02-15T12:39:17.636Z,19.27
2023-02-15T12:42:20.677Z,26.15
2023-02-15T12:44:58.294Z,17.58
2023-02-15T12:47:29.632Z,24.85
2023-02-15T12:52:49.509Z,19.30
2023-02-15T12:55:36.697Z,18.90
2023-02-15T12:58:32.392Z,18.95
2023-02-15T13:01:23.964Z,19.05
2023-02-15T13:04:15.988Z,20.67
2023-02-15T13:06:51.105Z,21.83
2023-02-15T13:09:23.616Z,21.15
2023-02-15T13:11:51.888Z,20.05
2023-02-15T13:14:36.147Z,23.95
2023-02-15T13:17:08.766Z,22.90
2023-02-15T13:19:39.300Z,21.60
2023-02-15T13:22:35.237Z,21.80
2023-02-15T13:25:15.208Z,22.80
2023-02-15T13:27:45.904Z,26.50
2023-02-15T13:30:29.027Z,22.25
2023-02-15T13:33:02.654Z,19.88
2023-02-15T13:35:42.233Z,22.23
2023-02-15T13:38:37.707Z,22.05
2023-02-15T13:41:11.602Z,21.02
2023-02-15T13:43:58.610Z,21.55
2023-02-15T13:46:45.623Z,22.73
2023-02-15T13:49:25.497Z,23.95
2023-02-15T13:52:13.593Z,22.52
2023-02-15T13:54:49.912Z,23.52
2023-02-15T13:57:51.065Z,24.02
2023-02-15T14:00:48.503Z,25.92
2023-02-15T14:03:36.452Z,24.13
2023-02-15T14:06:40.679Z,24.77
2023-02-15T14:09:14.565Z,25.08
2023-02-15T14:12:00.988Z,21.13
2023-02-15T14:14:54.526Z,23.27
2023-02-15T14:17:57.784Z,25.25
2023-02-15T14:20:43.863Z,23.35
2023-02-15T14:23:35.929Z,24.65
2023-02-15T14:26:34.722Z,21.58
2023-02-15T14:29:26.782Z,23.75
2023-02-15T14:31:58.415Z,24.70
2023-02-15T14:34:53.964Z,22.40
2023-02-15T14:37:44.419Z,20.73
2023-02-15T14:40:59.166Z,20.05
2023-02-15T14:43:51.463Z,22.58
2023-02-15T14:46:50.533Z,25.88
2023-02-15T14:49:25.597Z,27.08
2023-02-15T14:52:03.358Z,25.27
2023-02-15T14:54:32.328Z,22.48
2023-02-15T14:57:03.054Z,25.70
2023-02-15T14:59:39.795Z,25.73
2023-02-15T15:02:10.609Z,22.90
2023-02-15T15:04:58.535Z,24.63
2023-02-15T15:07:50.986Z,24.25
2023-02-15T15:10:18.999Z,24.73
2023-02-15T15:12:57.439Z,24.63
2023-02-15T15:15:34.228Z,25.67
2023-02-15T15:18:10.629Z,24.70
2023-02-15T15:20:46.838Z,27.38
2023-02-15T15:23:17.917Z,25.27
2023-02-15T15:25:53.923Z,25.92
2023-02-15T15:28:39.700Z,27.58
2023-02-15T15:31:21.118Z,26.27
2023-02-15T15:34:12.798Z,27.42
2023-02-15T15:39:21.999Z,29.48
2023-02-15T15:42:10.137Z,28.73
2023-02-15T15:45:15.088Z,30.33
2023-02-15T15:48:06.603Z,32.03
2023-02-15T15:50:38.566Z,30.80
2023-02-15T15:53:06.885Z,32.65
2023-02-15T15:55:36.537Z,30.23
2023-02-15T15:58:10.221Z,34.53
2023-02-15T16:00:50.861Z,28.52
2023-02-15T16:03:24.294Z,31.40
2023-02-15T16:05:56.436Z,35.92
2023-02-15T16:08:38.324Z,34.80
2023-02-15T16:11:18.444Z,30.92
2023-02-15T16:13:46.769Z,33.20
2023-02-15T16:16:16.370Z,30.25
2023-02-15T16:18:48.410Z,34.63
2023-02-15T16:21:31.617Z,41.60
2023-02-15T16:24:19.703Z,32.67
2023-02-15T16:27:14.002Z,34.92
2023-02-15T16:29:42.063Z,34.30
2023-02-15T16:32:24.618Z,36.00
2023-02-15T16:35:01.328Z,32.95
2023-02-15T16:37:34.842Z,30.20
2023-02-15T16:40:03.286Z,37.13
2023-02-15T16:42:31.353Z,32.70
2023-02-15T16:45:08.369Z,33.88
2023-02-15T16:47:42.386Z,36.53
2023-02-15T16:50:24.798Z,37.28
2023-02-15T16:52:54.480Z,38.25
2023-02-15T16:55:31.223Z,38.67
2023-02-15T16:58:06.182Z,37.63
2023-02-15T17:00:42.546Z,35.85
2023-02-15T17:03:16.743Z,33.85
2023-02-15T17:05:47.401Z,34.60
2023-02-15T17:08:20.053Z,34.33
2023-02-15T17:11:06.011Z,35.85
2023-02-15T17:13:34.104Z,33.17
2023-02-15T17:16:02.452Z,40.28
2023-02-15T17:18:33.736Z,38.78
2023-02-15T17:21:21.285Z,39.58
2023-02-15T17:23:53.252Z,40.28
2023-02-15T17:26:26.869Z,36.63
2023-02-15T17:29:04.812Z,37.70
2023-02-15T17:31:35.066Z,36.88
2023-02-15T17:34:04.095Z,35.53
2023-02-15T17:36:33.693Z,37.38
2023-02-15T17:39:01.739Z,41.28
2023-02-15T17:41:36.229Z,40.58
2023-02-15T17:44:05.152Z,38.65
2023-02-15T17:46:39.076Z,43.10
2023-02-15T17:49:07.168Z,46.70
2023-02-15T17:51:37.134Z,41.75
2023-02-15T17:54:26.614Z,42.65
2023-02-15T17:56:59.421Z,44.88
2023-02-15T17:59:27.739Z,41.47
2023-02-15T18:02:14.006Z,42.38
2023-02-15T18:05:01.125Z,41.72
2023-02-15T18:07:50.636Z,41.17
2023-02-15T18:10:39.078Z,44.75
2023-02-15T18:13:06.977Z,40.15
2023-02-15T18:15:35.705Z,45.08
2023-02-15T18:18:04.053Z,49.03
2023-02-15T18:20:38.525Z,45.97
2023-02-15T18:23:07.637Z,44.35
2023-02-15T18:25:35.636Z,42.38
2023-02-15T18:28:03.645Z,52.95
2023-02-15T18:30:32.041Z,50.17
2023-02-15T18:33:00.897Z,47.10
2023-02-15T18:35:32.411Z,46.80
2023-02-15T18:38:02.544Z,48.65
2023-02-15T18:40:30.920Z,44.47
2023-02-15T18:42:58.846Z,45.97
2023-02-15T18:45:33.551Z,43.08
2023-02-15T18:48:01.650Z,46.20
2023-02-15T18:50:35.020Z,43.45
2023-02-15T18:53:07.119Z,42.58
2023-02-15T18:55:40.306Z,49.30
2023-02-15T18:58:17.671Z,49.83
2023-02-15T19:00:46.599Z,59.80
2023-02-15T19:03:16.317Z,61.15
2023-02-15T19:05:47.093Z,53.45
2023-02-15T19:08:20.982Z,55.10
2023-02-15T19:10:49.525Z,57.30
2023-02-15T19:13:18.508Z,58.45
2023-02-15T19:15:46.850Z,56.30
2023-02-15T19:18:14.825Z,57.53
2023-02-15T19:20:47.543Z,62.92
2023-02-15T19:23:25.903Z,59.75
2023-02-15T19:25:55.222Z,60.35
2023-02-15T19:28:33.524Z,61.05
2023-02-15T19:31:05.818Z,59.00
2023-02-15T19:33:36.434Z,58.90
2023-02-15T19:36:14.684Z,59.97
2023-02-15T19:38:43.108Z,54.17
2023-02-15T19:41:30.512Z,57.95
2023-02-15T19:43:59.720Z,55.28
2023-02-15T19:46:28.157Z,55.10
2023-02-15T19:48:56.354Z,58.25
2023-02-15T19:51:30.727Z,56.17
2023-02-15T19:53:58.970Z,57.75
2023-02-15T19:56:28.614Z,58.63
2023-02-15T19:58:59.906Z,60.25
2023-02-15T20:03:56.705Z,62.17
2023-02-15T20:06:24.683Z,62.35
2023-02-15T20:08:52.875Z,67.18
2023-02-15T20:11:22.961Z,65.85
2023-02-15T20:13:50.887Z,58.72
2023-02-15T20:16:18.805Z,64.35
2023-02-15T20:18:47.581Z,67.70
2023-02-15T20:21:17.503Z,66.43
2023-02-15T20:23:49.035Z,63.92
2023-02-15T20:26:19.272Z,64.78
2023-02-15T20:28:47.837Z,61.80
2023-02-15T20:31:21.499Z,58.25
2023-02-15T20:33:50.445Z,62.20
2023-02-15T20:36:20.885Z,63.28
2023-02-15T20:38:49.933Z,62.42
2023-02-15T20:41:40.099Z,59.25
2023-02-15T20:44:20.113Z,61.25
2023-02-15T20:46:48.721Z,57.88
2023-02-15T20:49:16.643Z,57.28
2023-02-15T20:51:45.593Z,58.17
2023-02-15T20:54:22.354Z,54.80
2023-02-15T20:56:55.439Z,53.90
2023-02-15T20:59:33.939Z,53.03
2023-02-15T21:02:24.542Z,48.90
2023-02-15T21:04:52.776Z,55.03
2023-02-15T21:07:22.956Z,54.95
2023-02-15T21:09:50.974Z,60.05
2023-02-15T21:12:20.956Z,63.17
2023-02-15T21:14:49.072Z,60.47
2023-02-15T21:17:17.962Z,57.28
2023-02-15T21:19:45.914Z,58.47
2023-02-15T21:22:15.136Z,53.15
2023-02-15T21:24:51.916Z,50.85
2023-02-15T21:27:19.974Z,50.05
2023-02-15T21:29:47.863Z,57.63
2023-02-15T21:32:15.978Z,56.30
2023-02-15T21:34:43.895Z,54.00
2023-02-15T21:37:32.696Z,57.58
2023-02-15T21:40:00.715Z,47.35
2023-02-15T21:42:47.601Z,49.35
2023-02-15T21:45:38.574Z,51.88
2023-02-15T21:48:06.652Z,54.25
2023-02-15T21:50:54.863Z,53.42
2023-02-15T21:53:27.845Z,48.65
2023-02-15T21:55:58.343Z,49.35
2023-02-15T21:58:28.915Z,53.95
2023-02-15T22:00:58.959Z,54.03
2023-02-15T22:03:32.209Z,50.15
2023-02-15T22:06:00.300Z,51.75
2023-02-15T22:08:28.221Z,46.30
2023-02-15T22:10:57.563Z,49.17
2023-02-15T22:13:34.654Z,53.38
2023-02-15T22:16:03.991Z,71.53
2023-02-15T22:18:34.519Z,56.35
2023-02-15T22:21:04.153Z,52.20
2023-02-15T22:23:32.355Z,51.42
2023-02-15T22:26:23.542Z,50.42
2023-02-15T22:28:51.959Z,52.97
2023-02-15T22:31:24.446Z,57.10
2023-02-15T22:33:52.502Z,45.75
2023-02-15T22:36:31.468Z,49.22
2023-02-15T22:38:59.430Z,53.13
2023-02-15T22:41:30.861Z,52.83
2023-02-15T22:43:59.072Z,49.10
2023-02-15T22:46:27.670Z,49.10
2023-02-15T22:48:55.706Z,49.15
2023-02-15T22:51:25.283Z,50.03
2023-02-15T22:53:54.832Z,51.53
2023-02-15T22:56:44.832Z,52.88
2023-02-15T22:59:21.696Z,47.00
2023-02-15T23:01:53.159Z,45.72
2023-02-15T23:04:29.221Z,48.75
2023-02-15T23:07:00.514Z,51.72
2023-02-15T23:09:28.463Z,47.85
2023-02-15T23:11:56.322Z,43.65
2023-02-15T23:14:35.912Z,47.03
2023-02-15T23:17:04.080Z,49.60
2023-02-15T23:19:32.148Z,47.60
2023-02-15T23:22:00.016Z,42.47
2023-02-15T23:24:29.926Z,47.08
2023-02-15T23:27:18.752Z,45.33
2023-02-15T23:29:47.109Z,42.97
2023-02-15T23:32:16.441Z,46.03
2023-02-15T23:34:44.666Z,47.28
2023-02-15T23:37:27.004Z,44.58
2023-02-15T23:40:13.378Z,45.25
2023-02-15T23:42:41.885Z,45.42
2023-02-15T23:45:24.879Z,45.30
2023-02-15T23:48:28.977Z,45.40
2023-02-15T23:50:56.874Z,46.13
2023-02-15T23:53:24.763Z,42.25
2023-02-15T23:55:53.005Z,41.95
2023-02-15T23:58:24.776Z,43.10
